Time;durP1;ratioP1;P1;durP2;ratioP2;P2;SDS_P1;SDS_P2;PMS_P1;PMS_P2;Temp;Humidity;BMP_temperature;BMP_pressure;BME280_temperature;BME280_humidity;BME280_pressure;Samples;Min_cycle;Max_cycle;Signal;HPM_P1;HPM_P2
2022/06/25 00:01:59;;;;;;;1.80;1.50;;;;;;;17.27;52.42;96293.50;107498;1271;41267;-82
2022/06/25 00:07:19;;;;;;;2.70;1.90;;;;;;;17.37;52.32;96295.84;107478;1271;77381;-82
2022/06/25 00:09:50;;;;;;;2.60;1.90;;;;;;;17.32;52.60;96296.61;107536;1271;39762;-82
2022/06/25 00:12:33;;;;;;;2.00;1.50;;;;;;;17.32;52.57;96299.63;107551;1271;64273;-82
2022/06/25 00:15:06;;;;;;;2.20;1.60;;;;;;;17.30;52.56;96297.17;107564;1271;60984;-82
2022/06/25 00:17:38;;;;;;;2.80;1.70;;;;;;;17.31;52.44;96292.95;107476;1271;79946;-81
2022/06/25 00:20:11;;;;;;;2.40;1.70;;;;;;;17.37;52.32;96294.08;107628;1271;37053;-82
2022/06/25 00:22:42;;;;;;;1.80;1.50;;;;;;;17.44;52.20;96289.56;107482;1271;40115;-81
2022/06/25 00:25:13;;;;;;;2.10;1.70;;;;;;;17.51;52.11;96296.02;107573;1271;35000;-81
2022/06/25 00:27:44;;;;;;;2.70;2.20;;;;;;;17.55;52.12;96295.63;107394;1271;54946;-82
2022/06/25 00:30:15;;;;;;;3.10;1.70;;;;;;;17.49;52.52;96296.11;107472;1271;46061;-81
2022/06/25 00:32:47;;;;;;;2.30;1.90;;;;;;;17.47;52.40;96297.67;107599;1271;43245;-82
2022/06/25 00:35:18;;;;;;;3.10;1.90;;;;;;;17.51;52.27;96295.65;107435;1271;79957;-82
2022/06/25 00:37:50;;;;;;;1.80;1.70;;;;;;;17.52;52.31;96291.79;107450;1269;59132;-81
2022/06/25 00:40:21;;;;;;;3.30;1.90;;;;;;;17.54;52.48;96289.69;107529;1270;54721;-81
2022/06/25 00:42:52;;;;;;;4.70;2.10;;;;;;;17.45;52.91;96290.88;107583;1271;37035;-81
2022/06/25 00:45:23;;;;;;;1.60;1.50;;;;;;;17.43;53.39;96289.22;107530;1271;41835;-82
2022/06/25 00:47:55;;;;;;;2.40;1.70;;;;;;;17.37;53.45;96292.18;107586;1270;35223;-82
2022/06/25 00:50:26;;;;;;;2.70;1.40;;;;;;;17.24;53.50;96291.31;107594;1271;34502;-81
2022/06/25 00:53:00;;;;;;;2.20;1.70;;;;;;;17.17;53.56;96287.41;107536;1270;43408;-81
2022/06/25 00:55:32;;;;;;;2.10;1.70;;;;;;;17.12;53.74;96291.50;107575;1271;34689;-81
2022/06/25 00:58:04;;;;;;;1.70;1.60;;;;;;;17.03;54.07;96288.66;107547;1271;44360;-82
2022/06/25 01:00:35;;;;;;;2.90;1.70;;;;;;;17.01;54.39;96290.77;107555;1271;43951;-82
2022/06/25 01:03:06;;;;;;;2.60;1.40;;;;;;;16.98;54.42;96288.91;107616;1271;36843;-81
2022/06/25 01:05:37;;;;;;;2.40;1.50;;;;;;;16.96;54.51;96286.24;107622;1271;34995;-82
2022/06/25 01:08:09;;;;;;;3.30;1.90;;;;;;;16.90;54.64;96290.95;107640;1271;33226;-82
2022/06/25 01:10:40;;;;;;;3.40;1.90;;;;;;;16.76;54.98;96292.38;107426;1271;87873;-78
2022/06/25 01:13:11;;;;;;;2.70;1.80;;;;;;;16.55;54.93;96290.11;107489;1271;66741;-81
2022/06/25 01:15:44;;;;;;;4.60;1.70;;;;;;;16.55;55.30;96293.86;107632;1270;46119;-82
2022/06/25 01:18:16;;;;;;;3.40;1.70;;;;;;;16.44;55.39;96292.96;107603;1271;35608;-82
2022/06/25 01:20:47;;;;;;;3.00;1.60;;;;;;;16.43;55.79;96296.74;107606;1270;32961;-82
2022/06/25 01:23:18;;;;;;;2.50;1.60;;;;;;;16.20;56.16;96293.46;107567;1270;34811;-81
2022/06/25 01:25:50;;;;;;;2.00;1.40;;;;;;;16.07;56.72;96293.18;107465;1271;66678;-82
2022/06/25 01:28:21;;;;;;;2.50;1.70;;;;;;;15.89;57.07;96293.39;107387;1271;70681;-81
2022/06/25 01:30:52;;;;;;;3.30;1.50;;;;;;;15.65;57.56;96285.08;107418;1271;72576;-82
2022/06/25 01:33:23;;;;;;;2.60;2.00;;;;;;;15.72;57.79;96283.34;107504;1271;67648;-80
2022/06/25 01:35:54;;;;;;;1.60;1.50;;;;;;;15.57;58.37;96286.60;107566;1271;35801;-80
2022/06/25 01:38:26;;;;;;;1.60;1.40;;;;;;;15.32;59.09;96286.54;107573;1271;46014;-82
2022/06/25 01:40:57;;;;;;;2.70;1.70;;;;;;;15.19;59.33;96289.75;107595;1271;33401;-82
2022/06/25 01:43:29;;;;;;;3.20;1.50;;;;;;;15.17;59.91;96289.10;107427;1271;49881;-81
2022/06/25 01:46:00;;;;;;;2.80;1.70;;;;;;;15.07;59.86;96290.26;107408;1271;88571;-81
2022/06/25 01:48:31;;;;;;;2.70;1.20;;;;;;;15.18;60.08;96297.35;107440;1271;56542;-81
2022/06/25 01:51:02;;;;;;;1.60;1.50;;;;;;;15.05;60.21;96293.58;107523;1271;37491;-81
2022/06/25 01:53:33;;;;;;;2.10;1.90;;;;;;;15.11;60.50;96298.65;107518;1270;40181;-80
2022/06/25 01:56:07;;;;;;;1.90;1.80;;;;;;;15.08;60.53;96300.77;107463;1271;103722;-81
2022/06/25 01:58:39;;;;;;;1.70;1.60;;;;;;;15.02;60.56;96304.14;107455;1271;55564;-81
2022/06/25 02:01:10;;;;;;;3.50;2.00;;;;;;;15.07;60.58;96306.27;107632;1270;39565;-81
2022/06/25 02:03:41;;;;;;;3.20;1.90;;;;;;;15.09;60.58;96309.55;107565;1271;44789;-80
2022/06/25 02:06:13;;;;;;;1.60;1.50;;;;;;;15.06;60.70;96312.88;107550;1271;35658;-80
2022/06/25 02:08:44;;;;;;;2.20;1.70;;;;;;;15.08;60.59;96307.86;107558;1271;35759;-81
2022/06/25 02:11:15;;;;;;;2.10;1.80;;;;;;;15.14;60.67;96307.04;107535;1271;48080;-81
2022/06/25 02:13:46;;;;;;;3.10;1.80;;;;;;;15.03;60.86;96305.33;107459;1271;55011;-81
2022/06/25 02:16:17;;;;;;;2.80;1.80;;;;;;;14.89;61.26;96306.98;107481;1271;51766;-81
2022/06/25 02:18:49;;;;;;;3.10;1.70;;;;;;;14.70;61.72;96311.67;107544;1271;65168;-81
2022/06/25 02:21:20;;;;;;;2.30;2.10;;;;;;;14.70;61.94;96316.80;107461;1271;50270;-81
2022/06/25 02:23:51;;;;;;;1.50;1.30;;;;;;;14.68;62.19;96320.97;107469;1271;51114;-80
2022/06/25 02:26:22;;;;;;;2.00;1.60;;;;;;;14.63;62.39;96315.60;107411;1270;60435;-81
2022/06/25 02:28:53;;;;;;;1.60;1.50;;;;;;;14.58;62.40;96318.37;107594;1270;34782;-81
2022/06/25 02:31:24;;;;;;;2.00;1.60;;;;;;;14.59;62.47;96321.30;107495;1270;45425;-81
2022/06/25 02:33:56;;;;;;;3.50;1.70;;;;;;;14.60;62.90;96319.21;107449;1270;62304;-81
2022/06/25 02:36:27;;;;;;;3.00;1.90;;;;;;;14.59;62.82;96314.00;107484;1271;47067;-81
2022/06/25 02:38:58;;;;;;;2.50;1.90;;;;;;;14.69;62.85;96315.75;107476;1271;40232;-81
2022/06/25 02:41:29;;;;;;;3.10;2.00;;;;;;;14.80;62.65;96316.48;107539;1271;35108;-81
2022/06/25 02:44:00;;;;;;;2.40;1.80;;;;;;;14.83;62.63;96320.79;107550;1271;38019;-80
2022/06/25 02:46:32;;;;;;;2.00;1.60;;;;;;;14.73;62.86;96316.54;107570;1271;38980;-81
2022/06/25 02:49:03;;;;;;;5.70;1.90;;;;;;;14.68;63.02;96318.77;107564;1271;31612;-80
2022/06/25 02:51:35;;;;;;;2.10;1.70;;;;;;;14.73;63.03;96320.52;107565;1271;37793;-80
2022/06/25 02:54:07;;;;;;;2.70;1.80;;;;;;;14.72;63.16;96318.05;107617;1271;37454;-81
2022/06/25 02:59:26;;;;;;;4.20;2.10;;;;;;;14.79;63.42;96319.98;107526;1271;38213;-80
2022/06/25 03:01:58;;;;;;;2.10;1.60;;;;;;;14.88;63.26;96319.80;107512;1270;37446;-81
2022/06/25 03:04:29;;;;;;;2.90;2.10;;;;;;;14.81;63.35;96321.90;107473;1270;48204;-81
2022/06/25 03:07:00;;;;;;;3.30;1.90;;;;;;;14.86;63.40;96325.29;107504;1271;44345;-80
2022/06/25 03:09:32;;;;;;;3.10;1.80;;;;;;;14.95;63.21;96323.66;107602;1271;31395;-79
2022/06/25 03:12:04;;;;;;;2.30;1.50;;;;;;;15.12;63.14;96320.44;107565;1270;31297;-78
2022/06/25 03:14:35;;;;;;;1.90;1.40;;;;;;;15.20;62.98;96318.21;107577;1270;31804;-79
2022/06/25 03:17:07;;;;;;;2.80;2.00;;;;;;;15.26;63.15;96320.60;107599;1271;30058;-78
2022/06/25 03:19:38;;;;;;;2.10;1.80;;;;;;;15.33;63.18;96321.06;107655;1271;31407;-78
2022/06/25 03:22:09;;;;;;;2.50;1.70;;;;;;;15.41;63.12;96322.48;107616;1271;32950;-78
2022/06/25 03:24:40;;;;;;;3.40;1.80;;;;;;;15.51;62.87;96320.68;107651;1271;32292;-78
2022/06/25 03:27:11;;;;;;;1.70;1.60;;;;;;;15.65;63.01;96319.77;107573;1271;29214;-77
2022/06/25 03:29:42;;;;;;;2.00;1.80;;;;;;;15.74;63.12;96321.63;107566;1271;33359;-78
2022/06/25 03:32:13;;;;;;;5.30;2.40;;;;;;;15.78;63.13;96319.13;107620;1271;29824;-78
2022/06/25 03:34:44;;;;;;;3.10;1.80;;;;;;;15.90;62.97;96319.00;107566;1270;35417;-78
2022/06/25 03:37:16;;;;;;;2.30;1.70;;;;;;;16.03;63.43;96320.55;107363;1270;123607;-78
2022/06/25 03:39:48;;;;;;;2.10;1.30;;;;;;;16.15;63.17;96324.32;107485;1271;33271;-78
2022/06/25 03:42:19;;;;;;;1.70;1.60;;;;;;;16.31;63.09;96326.63;107533;1268;74151;-78
2022/06/25 03:44:50;;;;;;;1.80;1.50;;;;;;;16.42;63.26;96324.53;107556;1270;32739;-78
2022/06/25 03:47:21;;;;;;;1.90;1.70;;;;;;;16.50;62.67;96327.31;107396;1270;71229;-79
2022/06/25 03:49:53;;;;;;;1.60;1.50;;;;;;;16.65;62.07;96324.61;107618;1270;31405;-78
2022/06/25 03:52:25;;;;;;;3.00;2.00;;;;;;;16.83;61.88;96323.58;107556;1271;31625;-78
2022/06/25 03:54:57;;;;;;;3.60;1.80;;;;;;;16.98;61.48;96327.29;107619;1270;30757;-78
2022/06/25 03:57:28;;;;;;;3.10;1.80;;;;;;;17.14;61.01;96325.97;107460;1270;69336;-79
2022/06/25 03:59:59;;;;;;;3.50;1.90;;;;;;;17.29;60.90;96319.77;107488;1271;63267;-78
2022/06/25 04:02:30;;;;;;;2.30;1.80;;;;;;;17.43;60.82;96323.85;107496;1271;39041;-79
2022/06/25 04:05:01;;;;;;;5.50;1.90;;;;;;;17.58;60.92;96326.92;107366;1271;75641;-78
2022/06/25 04:07:33;;;;;;;2.00;1.80;;;;;;;17.74;60.87;96326.20;107540;1270;69814;-79
2022/06/25 04:10:15;;;;;;;4.20;2.00;;;;;;;17.88;60.61;96325.74;107609;1271;34631;-78
2022/06/25 04:12:46;;;;;;;3.40;2.00;;;;;;;18.02;60.37;96327.67;107527;1271;33951;-79
2022/06/25 04:15:17;;;;;;;2.80;1.90;;;;;;;18.15;59.80;96328.41;107543;1270;30240;-78
2022/06/25 04:17:49;;;;;;;2.00;1.80;;;;;;;18.29;59.72;96328.09;107493;1271;67861;-78
2022/06/25 04:20:20;;;;;;;2.80;1.60;;;;;;;18.41;59.81;96324.11;107477;1270;80681;-78
2022/06/25 04:22:51;;;;;;;2.20;2.00;;;;;;;18.52;59.41;96326.38;107529;1270;74001;-78
2022/06/25 04:25:22;;;;;;;2.10;1.90;;;;;;;18.58;58.82;96332.77;107497;1271;73448;-78
2022/06/25 04:30:42;;;;;;;2.80;2.00;;;;;;;18.79;58.48;96341.59;107495;1270;33945;-77
2022/06/25 04:33:14;;;;;;;2.00;1.80;;;;;;;18.92;58.42;96339.44;107385;1271;119904;-78
2022/06/25 04:35:45;;;;;;;3.50;2.00;;;;;;;19.09;57.36;96344.02;107472;1270;66502;-78
2022/06/25 04:38:17;;;;;;;4.00;1.80;;;;;;;19.20;56.96;96341.88;107503;1271;37118;-78
2022/06/25 04:40:48;;;;;;;2.40;2.00;;;;;;;19.29;56.27;96344.30;107496;1271;137014;-78
2022/06/25 04:43:19;;;;;;;2.40;1.70;;;;;;;19.41;56.09;96347.64;107577;1270;36443;-78
2022/06/25 04:45:50;;;;;;;2.30;1.90;;;;;;;19.54;56.27;96347.86;107554;1271;31556;-78
2022/06/25 04:48:21;;;;;;;3.10;1.70;;;;;;;19.67;55.70;96347.38;107619;1270;31049;-79
2022/06/25 04:50:53;;;;;;;2.20;2.00;;;;;;;19.73;55.19;96352.33;107569;1271;30800;-78
2022/06/25 04:53:24;;;;;;;4.50;2.00;;;;;;;19.82;54.79;96349.02;107611;1269;31732;-78
2022/06/25 04:55:55;;;;;;;2.80;1.90;;;;;;;19.96;54.44;96345.17;107603;1271;31274;-78
2022/06/25 04:58:27;;;;;;;3.90;2.40;;;;;;;20.08;53.58;96348.31;107563;1269;38461;-78
2022/06/25 05:00:59;;;;;;;3.00;2.00;;;;;;;20.13;53.42;96347.31;107585;1271;31334;-78
2022/06/25 05:03:30;;;;;;;4.30;2.10;;;;;;;20.23;52.66;96348.91;107575;1271;33215;-78
2022/06/25 05:06:06;;;;;;;4.70;1.90;;;;;;;20.32;52.41;96349.92;107523;1270;38565;-78
2022/06/25 05:08:37;;;;;;;2.80;2.00;;;;;;;20.40;52.00;96350.44;107636;1271;39955;-78
2022/06/25 05:11:08;;;;;;;3.30;1.90;;;;;;;20.56;52.05;96348.30;107600;1271;38140;-78
2022/06/25 05:13:40;;;;;;;2.90;1.60;;;;;;;20.91;52.03;96350.11;107662;1270;27991;-78
2022/06/25 05:16:11;;;;;;;5.80;1.90;;;;;;;21.24;51.19;96343.61;107571;1271;39920;-77
2022/06/25 05:18:42;;;;;;;2.10;1.90;;;;;;;21.66;50.52;96345.55;107548;1270;34658;-77
2022/06/25 05:21:13;;;;;;;2.50;2.10;;;;;;;22.13;50.41;96342.27;107537;1271;35775;-77
2022/06/25 05:23:45;;;;;;;3.30;1.70;;;;;;;22.69;49.72;96346.52;107530;1271;36182;-77
2022/06/25 05:26:16;;;;;;;2.50;2.00;;;;;;;23.78;48.92;96348.67;107565;1271;31282;-78
2022/06/25 05:28:47;;;;;;;3.70;1.70;;;;;;;25.96;47.81;96341.92;107579;1270;36346;-78
2022/06/25 05:31:19;;;;;;;2.30;2.00;;;;;;;28.60;45.50;96347.04;107540;1271;37700;-78
2022/06/25 05:33:50;;;;;;;2.40;1.70;;;;;;;30.63;41.95;96350.52;107565;1271;36811;-79
2022/06/25 05:36:21;;;;;;;1.70;1.60;;;;;;;32.06;37.75;96351.25;107541;1269;41765;-80
2022/06/25 05:38:53;;;;;;;2.20;1.30;;;;;;;32.77;36.11;96349.31;107572;1270;32526;-81
2022/06/25 05:41:24;;;;;;;3.20;1.90;;;;;;;33.63;34.28;96347.77;107588;1270;36695;-80
2022/06/25 05:43:55;;;;;;;2.20;1.90;;;;;;;33.78;32.70;96345.70;107530;1271;39180;-71
2022/06/25 05:46:27;;;;;;;3.60;1.90;;;;;;;34.61;32.84;96348.48;107608;1271;37319;-84
2022/06/25 05:48:58;;;;;;;2.20;1.50;;;;;;;35.66;31.46;96347.13;106448;1270;1312872;-83
2022/06/25 05:51:32;;;;;;;2.40;1.70;;;;;;;36.93;30.61;96347.96;105251;1271;2710897;-82
2022/06/25 05:54:06;;;;;;;2.80;1.80;;;;;;;38.01;29.17;96345.66;104664;1270;1997290;-81
2022/06/25 05:56:37;;;;;;;1.60;1.50;;;;;;;39.00;28.44;96348.04;107715;1270;33361;-81
2022/06/25 05:59:08;;;;;;;2.80;1.50;;;;;;;39.74;27.10;96348.36;107622;1270;56385;-82
2022/06/25 06:01:39;;;;;;;5.60;1.60;;;;;;;39.67;26.58;96348.57;107630;1270;31397;-80
2022/06/25 06:04:11;;;;;;;3.00;1.40;;;;;;;39.72;26.05;96350.89;107694;1270;34709;-80
2022/06/25 06:06:42;;;;;;;3.40;1.50;;;;;;;39.88;25.29;96354.70;107616;1269;30129;-75
2022/06/25 06:09:14;;;;;;;1.60;1.50;;;;;;;40.09;24.41;96357.30;107605;1271;32360;-77
2022/06/25 06:11:45;;;;;;;1.70;1.30;;;;;;;40.28;24.18;96357.19;107603;1269;29528;-78
2022/06/25 06:14:16;;;;;;;3.20;1.40;;;;;;;40.76;23.85;96357.30;107590;1270;30692;-79
2022/06/25 06:16:48;;;;;;;2.90;1.40;;;;;;;41.27;23.42;96357.52;107557;1270;32421;-76
2022/06/25 06:19:20;;;;;;;1.60;1.30;;;;;;;41.77;22.67;96358.89;107574;1271;39327;-75
2022/06/25 06:21:52;;;;;;;2.70;1.40;;;;;;;41.90;22.22;96356.32;107565;1270;38949;-76
2022/06/25 06:24:23;;;;;;;3.70;1.50;;;;;;;41.92;21.79;96365.36;107629;1270;33594;-79
2022/06/25 06:26:55;;;;;;;1.50;1.40;;;;;;;41.80;22.02;96367.02;107550;1270;34561;-77
2022/06/25 06:29:26;;;;;;;3.00;1.50;;;;;;;42.20;21.75;96366.52;107489;1271;36918;-77
2022/06/25 06:31:58;;;;;;;2.50;1.40;;;;;;;42.31;21.37;96362.05;107512;1271;38216;-78
2022/06/25 06:34:29;;;;;;;3.00;1.30;;;;;;;42.46;21.19;96364.33;107594;1270;32409;-77
2022/06/25 06:37:01;;;;;;;2.00;1.60;;;;;;;42.15;20.85;96360.95;107602;1270;33191;-78
2022/06/25 06:39:32;;;;;;;4.20;1.50;;;;;;;41.89;21.12;96360.98;107478;1270;71036;-76
2022/06/25 06:42:04;;;;;;;2.00;1.40;;;;;;;42.04;21.21;96359.84;107586;1270;43246;-80
2022/06/25 06:44:36;;;;;;;3.90;1.50;;;;;;;41.65;21.06;96358.60;107633;1271;33587;-80
2022/06/25 06:47:08;;;;;;;3.40;1.50;;;;;;;41.26;21.70;96355.48;107626;1270;35084;-81
2022/06/25 06:49:39;;;;;;;3.10;1.60;;;;;;;41.32;21.40;96360.27;107671;1270;38599;-80
2022/06/25 06:52:10;;;;;;;10.30;3.00;;;;;;;41.00;20.99;96355.91;107531;1271;50681;-81
2022/06/25 06:54:42;;;;;;;2.80;1.90;;;;;;;40.31;20.88;96355.48;107485;1271;45217;-77
2022/06/25 06:57:14;;;;;;;6.80;2.70;;;;;;;40.02;21.99;96358.39;107591;1271;31163;-79
2022/06/25 06:59:46;;;;;;;3.50;1.50;;;;;;;40.49;21.88;96354.55;107534;1271;42042;-83
2022/06/25 07:02:17;;;;;;;2.90;1.60;;;;;;;41.16;21.71;96357.07;107582;1271;45027;-82
2022/06/25 07:04:48;;;;;;;2.60;1.60;;;;;;;41.91;21.01;96358.24;107553;1271;33768;-82
2022/06/25 07:07:20;;;;;;;2.30;1.60;;;;;;;42.34;20.34;96358.27;107591;1271;44394;-83
2022/06/25 07:09:51;;;;;;;2.70;1.50;;;;;;;42.54;20.47;96359.02;107612;1270;36320;-83
2022/06/25 07:12:23;;;;;;;3.00;1.30;;;;;;;43.08;19.87;96359.23;107535;1270;51718;-82
2022/06/25 07:14:54;;;;;;;2.50;1.50;;;;;;;42.99;19.45;96356.92;107619;1269;32996;-83
2022/06/25 07:17:26;;;;;;;2.80;1.80;;;;;;;43.21;19.89;96356.41;107554;1271;35725;-83
2022/06/25 07:19:58;;;;;;;2.70;1.40;;;;;;;44.18;19.54;96355.54;107590;1270;34446;-84
2022/06/25 07:22:29;;;;;;;1.70;1.40;;;;;;;45.18;18.93;96355.74;107679;1270;37948;-84
2022/06/25 07:25:02;;;;;;;2.60;1.70;;;;;;;46.02;17.72;96356.00;107483;1270;58624;-84
2022/06/25 07:27:33;;;;;;;1.90;1.20;;;;;;;45.78;17.61;96357.09;107546;1270;35333;-84
2022/06/25 07:30:06;;;;;;;2.90;1.40;;;;;;;45.79;17.28;96357.09;107577;1271;31864;-84
2022/06/25 07:32:38;;;;;;;1.70;1.30;;;;;;;45.52;17.01;96356.58;107702;1269;28649;-84
2022/06/25 07:35:11;;;;;;;9.40;3.10;;;;;;;46.64;17.56;96356.65;107499;1270;35010;-84
2022/06/25 07:37:43;;;;;;;3.20;1.60;;;;;;;48.10;16.24;96352.77;108924;1271;30210;-83
2022/06/25 07:40:16;;;;;;;2.20;1.60;;;;;;;47.73;15.69;96351.69;107599;1270;36226;-84
2022/06/25 07:42:47;;;;;;;1.50;1.30;;;;;;;46.84;15.72;96351.90;107658;1270;35710;-84
2022/06/25 07:45:18;;;;;;;1.50;1.20;;;;;;;46.52;15.50;96352.30;107595;1270;29650;-85
2022/06/25 07:47:50;;;;;;;1.80;1.70;;;;;;;45.90;15.78;96347.63;107609;1270;38321;-85
2022/06/25 07:53:11;;;;;;;1.40;1.20;;;;;;;47.50;15.09;96349.36;107935;1271;63398;-84
2022/06/25 07:55:43;;;;;;;2.50;1.60;;;;;;;47.41;14.79;96348.83;107680;1269;100124;-84
2022/06/25 07:58:15;;;;;;;3.00;1.50;;;;;;;47.98;14.55;96342.98;107652;1271;96384;-84
2022/06/25 08:00:50;;;;;;;1.70;1.60;;;;;;;48.51;14.35;96342.35;107179;1270;103812;-84
2022/06/25 08:03:22;;;;;;;2.50;1.60;;;;;;;49.45;14.02;96348.04;107402;1268;94665;-85
2022/06/25 08:05:56;;;;;;;2.30;1.60;;;;;;;50.09;14.29;96345.90;107901;1270;100543;-84
2022/06/25 08:08:29;;;;;;;2.10;2.00;;;;;;;50.35;13.44;96348.09;107709;1270;91668;-84
2022/06/25 08:11:01;;;;;;;2.00;1.90;;;;;;;50.18;13.22;96350.08;107532;1270;88563;-85
2022/06/25 08:13:36;;;;;;;3.20;2.20;;;;;;;50.62;13.47;96354.17;107690;1270;91433;-82
2022/06/25 08:16:09;;;;;;;2.10;2.00;;;;;;;50.89;12.82;96360.85;107543;1270;42897;-84
2022/06/25 08:18:41;;;;;;;2.50;2.40;;;;;;;50.27;12.99;96357.31;107495;1268;39700;-83
2022/06/25 08:21:13;;;;;;;4.00;2.70;;;;;;;50.21;13.05;96356.01;107534;1270;42130;-83
2022/06/25 08:23:45;;;;;;;3.00;2.80;;;;;;;50.58;13.16;96357.74;107521;1270;43153;-84
2022/06/25 08:26:17;;;;;;;2.80;2.60;;;;;;;50.98;12.63;96361.18;107624;1271;68455;-81
2022/06/25 08:28:48;;;;;;;6.20;3.00;;;;;;;50.78;12.94;96360.20;107487;1270;47117;-81
2022/06/25 08:31:30;;;;;;;3.40;3.20;;;;;;;51.28;12.76;96363.10;107475;1270;59899;-81
2022/06/25 08:34:01;;;;;;;3.60;3.40;;;;;;;51.28;12.08;96359.93;107651;1270;32434;-76
2022/06/25 08:36:33;;;;;;;4.10;3.90;;;;;;;51.19;11.89;96360.27;107569;1271;51375;-76
2022/06/25 08:39:05;;;;;;;4.30;4.10;;;;;;;50.39;11.69;96351.88;107516;1270;64307;-76
2022/06/25 08:41:39;;;;;;;3.90;3.70;;;;;;;48.74;11.61;96350.87;107525;1271;92989;-77
2022/06/25 08:44:13;;;;;;;3.10;2.90;;;;;;;46.93;12.90;96356.45;105202;1270;2607557;-76
2022/06/25 08:46:46;;;;;;;4.60;2.80;;;;;;;46.63;12.75;96353.13;107370;1270;72477;-76
2022/06/25 08:49:21;;;;;;;1.70;1.60;;;;;;;46.50;13.51;96354.73;107511;1271;85762;-75
2022/06/25 08:51:58;;;;;;;1.40;1.30;;;;;;;46.17;13.48;96351.45;107342;1271;93923;-75
2022/06/25 08:54:34;;;;;;;2.10;1.30;;;;;;;43.81;14.31;96352.21;107407;1271;117254;-76
2022/06/25 08:57:09;;;;;;;2.60;1.40;;;;;;;41.93;15.51;96353.68;107510;1271;93962;-76
2022/06/25 08:59:43;;;;;;;2.10;1.40;;;;;;;40.24;16.80;96346.47;105747;1270;2459473;-75
2022/06/25 09:02:15;;;;;;;2.00;1.30;;;;;;;38.85;18.10;96346.58;107415;1269;95151;-75
2022/06/25 09:04:46;;;;;;;2.00;1.80;;;;;;;38.08;18.83;96350.23;107478;1270;92786;-76
2022/06/25 09:07:20;;;;;;;2.30;1.50;;;;;;;37.60;19.47;96351.58;107498;1270;80740;-75
2022/06/25 09:09:53;;;;;;;4.60;1.50;;;;;;;36.71;19.84;96344.83;107509;1271;91105;-74
2022/06/25 09:12:25;;;;;;;1.70;1.50;;;;;;;35.11;20.88;96348.09;107418;1271;84953;-76
2022/06/25 09:15:01;;;;;;;4.90;1.80;;;;;;;34.83;21.40;96348.19;105763;1270;2311736;-76
2022/06/25 09:17:34;;;;;;;3.00;1.80;;;;;;;33.95;21.58;96350.55;107426;1270;79958;-73
2022/06/25 09:20:07;;;;;;;5.00;2.30;;;;;;;33.30;22.35;96351.59;107424;1270;80197;-76
2022/06/25 09:22:40;;;;;;;2.80;1.60;;;;;;;33.21;22.86;96359.11;107471;1270;108965;-74
2022/06/25 09:25:12;;;;;;;2.60;1.90;;;;;;;33.28;23.80;96353.91;107458;1271;87676;-76
2022/06/25 09:27:43;;;;;;;3.20;1.70;;;;;;;33.02;23.76;96359.29;107553;1271;30603;-76
2022/06/25 09:30:19;;;;;;;2.60;1.60;;;;;;;32.49;24.18;96359.24;107399;1271;98130;-76
2022/06/25 09:32:52;;;;;;;1.90;1.60;;;;;;;32.27;24.89;96357.14;107479;1270;42823;-76
2022/06/25 09:35:35;;;;;;;3.00;1.80;;;;;;;32.09;25.18;96352.52;107586;1270;43875;-76
2022/06/25 09:38:09;;;;;;;2.30;1.70;;;;;;;32.28;25.15;96352.91;107601;1270;37221;-76
2022/06/25 09:40:48;;;;;;;4.40;1.90;;;;;;;32.33;25.53;96358.83;107583;1270;54447;-76
2022/06/25 09:43:21;;;;;;;2.30;1.70;;;;;;;32.10;24.63;96349.45;107423;1270;30776;-76
2022/06/25 09:45:54;;;;;;;2.30;1.90;;;;;;;31.48;25.64;96346.72;107115;1270;73511;-75
2022/06/25 09:48:28;;;;;;;4.30;1.70;;;;;;;31.66;25.83;96350.90;107545;1270;62521;-76
2022/06/25 09:51:16;;;;;;;2.60;1.50;;;;;;;31.88;25.20;96346.78;107519;1271;61111;-76
2022/06/25 09:53:53;;;;;;;3.80;1.90;;;;;;;32.17;24.68;96351.56;107609;1269;58461;-75
2022/06/25 09:56:27;;;;;;;3.90;1.70;;;;;;;32.41;24.87;96351.20;107408;1270;68467;-75
2022/06/25 09:59:00;;;;;;;2.20;1.60;;;;;;;32.57;24.75;96348.56;107210;1270;306254;-75
2022/06/25 10:01:34;;;;;;;2.50;1.40;;;;;;;32.84;24.45;96347.35;107585;1270;47650;-76
2022/06/25 10:04:11;;;;;;;2.10;1.60;;;;;;;32.98;24.09;96344.49;107453;1270;35900;-75
2022/06/25 10:06:43;;;;;;;2.70;2.10;;;;;;;32.67;24.38;96336.86;107511;1270;33886;-76
2022/06/25 10:09:18;;;;;;;4.30;2.00;;;;;;;32.29;24.85;96339.62;107086;1270;133842;-76
2022/06/25 10:11:51;;;;;;;2.70;1.80;;;;;;;32.12;25.52;96337.88;107449;1270;60118;-76
2022/06/25 10:14:23;;;;;;;2.60;1.80;;;;;;;32.28;25.98;96334.55;107574;1270;33273;-76
2022/06/25 10:16:56;;;;;;;2.00;1.60;;;;;;;32.35;25.37;96338.88;107572;1270;33671;-77
2022/06/25 10:19:30;;;;;;;3.00;1.80;;;;;;;31.47;25.60;96336.25;107503;1270;48689;-77
2022/06/25 10:22:01;;;;;;;2.20;1.80;;;;;;;31.04;25.32;96332.96;107571;1271;32645;-77
2022/06/25 10:24:35;;;;;;;5.60;2.00;;;;;;;30.41;26.05;96331.34;107429;1270;61037;-76
2022/06/25 10:27:07;;;;;;;2.90;1.90;;;;;;;30.21;27.06;96331.48;107530;1270;42471;-76
2022/06/25 10:29:40;;;;;;;3.30;1.70;;;;;;;30.59;27.93;96326.60;107612;1270;38600;-76
2022/06/25 10:32:22;;;;;;;4.50;1.90;;;;;;;31.05;28.16;96326.30;107510;1271;32888;-78
2022/06/25 10:35:02;;;;;;;4.80;2.10;;;;;;;31.52;27.81;96323.32;107560;1271;36928;-75
2022/06/25 10:38:02;;;;;;;2.20;1.70;;;;;;;31.76;27.24;96327.30;107605;1270;41498;-74
2022/06/25 10:40:46;;;;;;;2.70;2.00;;;;;;;32.22;26.70;96327.70;107570;1269;40785;-75
2022/06/25 10:43:39;;;;;;;2.10;1.80;;;;;;;32.40;26.98;96326.98;107450;1271;41972;-74
2022/06/25 10:46:41;;;;;;;3.70;2.00;;;;;;;32.58;26.69;96330.95;107672;1271;59816;-75
2022/06/25 10:49:19;;;;;;;2.10;1.80;;;;;;;32.16;25.50;96332.39;107395;1271;72526;-76
2022/06/25 10:51:52;;;;;;;3.00;2.00;;;;;;;31.42;26.10;96323.04;107513;1270;43149;-75
2022/06/25 10:54:40;;;;;;;2.60;1.70;;;;;;;30.83;26.27;96324.48;107533;1270;66670;-75
2022/06/25 10:57:12;;;;;;;2.30;1.80;;;;;;;30.10;26.98;96323.98;107647;1270;40663;-77
2022/06/25 10:59:48;;;;;;;4.10;1.80;;;;;;;29.94;28.02;96322.48;107457;1271;74942;-76
2022/06/25 11:02:23;;;;;;;2.40;1.70;;;;;;;30.32;27.75;96321.17;107415;1270;63396;-76
2022/06/25 11:04:57;;;;;;;3.50;1.80;;;;;;;30.72;27.93;96318.42;107401;1271;96336;-76
2022/06/25 11:07:29;;;;;;;4.00;2.40;;;;;;;30.59;27.55;96318.48;107546;1270;33419;-76
2022/06/25 11:10:02;;;;;;;2.40;2.20;;;;;;;30.57;28.76;96316.78;107468;1271;30899;-76
2022/06/25 11:12:34;;;;;;;4.00;2.10;;;;;;;31.02;29.20;96318.98;107563;1270;40600;-76
2022/06/25 11:15:09;;;;;;;1.90;1.70;;;;;;;31.49;28.24;96316.86;107542;1270;35271;-76
2022/06/25 11:17:41;;;;;;;2.60;1.80;;;;;;;31.36;27.14;96321.59;107608;1270;51358;-76
2022/06/25 11:20:14;;;;;;;1.80;1.70;;;;;;;31.27;27.32;96320.36;107173;1271;197967;-77
2022/06/25 11:22:50;;;;;;;3.30;1.90;;;;;;;31.58;27.41;96318.17;107491;1271;37595;-77
2022/06/25 11:31:17;;;;;;;2.60;1.70;;;;;;;32.54;27.91;96321.23;107589;1270;35959;-74
2022/06/25 11:33:49;;;;;;;2.20;1.80;;;;;;;32.65;26.80;96317.08;107500;1270;41229;-74
2022/06/25 11:36:23;;;;;;;2.90;2.10;;;;;;;32.53;26.65;96314.31;107380;1270;68410;-74
2022/06/25 11:38:57;;;;;;;1.90;1.60;;;;;;;32.39;26.10;96315.80;107582;1270;36543;-75
2022/06/25 11:41:31;;;;;;;3.10;2.00;;;;;;;32.42;26.60;96314.56;107563;1270;30789;-74
2022/06/25 11:44:09;;;;;;;2.00;1.80;;;;;;;32.57;26.55;96316.08;107573;1271;43660;-74
2022/06/25 11:46:40;;;;;;;2.30;1.60;;;;;;;32.62;25.92;96313.61;107657;1270;52406;-74
2022/06/25 11:49:12;;;;;;;2.60;2.10;;;;;;;32.53;25.63;96318.16;107603;1271;40242;-74
2022/06/25 11:51:49;;;;;;;3.70;1.80;;;;;;;31.98;25.22;96313.66;107552;1270;37060;-75
2022/06/25 11:54:25;;;;;;;2.30;1.70;;;;;;;31.79;26.00;96312.91;107630;1270;31081;-74
2022/06/25 11:56:57;;;;;;;2.30;1.70;;;;;;;31.59;26.15;96309.38;107565;1270;31547;-73
2022/06/25 11:59:31;;;;;;;2.50;1.50;;;;;;;31.48;26.76;96307.40;107612;1271;32543;-74
2022/06/25 12:02:04;;;;;;;3.30;1.80;;;;;;;31.47;26.53;96306.11;107510;1270;36232;-74
2022/06/25 12:04:49;;;;;;;2.90;1.80;;;;;;;31.33;26.64;96308.10;107652;1270;30811;-74
2022/06/25 12:07:23;;;;;;;4.10;2.00;;;;;;;31.13;26.80;96306.82;107543;1270;33613;-74